createdAt,value
2022-12-08T00:01:35.306Z,9.40
2022-12-08T00:04:03.907Z,7.40
2022-12-08T00:06:49.535Z,7.00
2022-12-08T00:09:25.819Z,7.40
2022-12-08T00:11:55.656Z,8.90
2022-12-08T00:14:26.606Z,7.30
2022-12-08T00:16:54.706Z,6.70
2022-12-08T00:19:22.480Z,8.10
2022-12-08T00:21:49.368Z,8.30
2022-12-08T00:24:16.161Z,7.90
2022-12-08T00:26:43.092Z,8.80
2022-12-08T00:29:15.886Z,8.00
2022-12-08T00:31:44.349Z,7.70
2022-12-08T00:34:14.095Z,6.80
2022-12-08T00:36:41.480Z,6.90
2022-12-08T00:39:08.737Z,9.10
2022-12-08T00:41:50.781Z,8.10
2022-12-08T00:44:19.013Z,8.00
2022-12-08T00:46:46.825Z,8.60
2022-12-08T00:49:13.952Z,6.80
2022-12-08T00:51:40.896Z,8.50
2022-12-08T00:54:08.065Z,8.10
2022-12-08T00:56:35.097Z,6.80
2022-12-08T00:59:04.415Z,7.30
2022-12-08T01:01:31.755Z,6.90
2022-12-08T01:03:58.539Z,8.20
2022-12-08T01:06:25.217Z,8.40
2022-12-08T01:08:51.974Z,8.20
2022-12-08T01:11:19.752Z,8.90
2022-12-08T01:13:47.068Z,8.20
2022-12-08T01:16:23.677Z,7.00
2022-12-08T01:18:51.311Z,8.60
2022-12-08T01:21:18.912Z,8.80
2022-12-08T01:23:46.461Z,8.20
2022-12-08T01:26:16.281Z,8.40
2022-12-08T01:28:43.959Z,8.20
2022-12-08T01:31:16.769Z,6.40
2022-12-08T01:33:44.309Z,7.20
2022-12-08T01:36:24.159Z,9.40
2022-12-08T01:38:52.450Z,6.90
2022-12-08T01:41:22.511Z,7.80
2022-12-08T01:43:58.744Z,9.20
2022-12-08T01:46:26.436Z,7.80
2022-12-08T01:48:59.354Z,8.00
2022-12-08T01:51:26.720Z,5.00
2022-12-08T01:53:53.786Z,7.00
2022-12-08T01:56:28.381Z,7.90
2022-12-08T01:58:55.972Z,6.80
2022-12-08T02:01:23.184Z,6.70
2022-12-08T02:03:58.294Z,9.00
2022-12-08T02:06:27.525Z,8.30
2022-12-08T02:08:55.335Z,8.20
2022-12-08T02:11:22.196Z,8.30
2022-12-08T02:13:52.275Z,8.90
2022-12-08T02:16:34.459Z,8.70
2022-12-08T02:19:32.318Z,8.00
2022-12-08T02:22:18.171Z,7.70
2022-12-08T02:24:50.892Z,7.80
2022-12-08T02:27:24.276Z,8.30
2022-12-08T02:29:52.054Z,9.20
2022-12-08T02:32:33.996Z,8.70
2022-12-08T02:35:06.115Z,8.90
2022-12-08T02:37:41.147Z,8.70
2022-12-08T02:40:13.962Z,9.00
2022-12-08T02:42:47.123Z,8.40
2022-12-08T02:45:21.159Z,8.40
2022-12-08T02:47:48.266Z,8.50
2022-12-08T02:50:15.740Z,8.10
2022-12-08T02:52:45.621Z,7.60
2022-12-08T02:55:21.642Z,7.50
2022-12-08T02:58:05.645Z,9.10
2022-12-08T03:00:48.989Z,8.10
2022-12-08T03:03:22.816Z,8.20
2022-12-08T03:05:56.077Z,9.20
2022-12-08T03:08:33.259Z,8.90
2022-12-08T03:11:20.503Z,7.20
2022-12-08T03:13:52.352Z,8.50
2022-12-08T03:16:24.720Z,8.20
2022-12-08T03:19:01.685Z,8.60
2022-12-08T03:21:29.951Z,6.40
2022-12-08T03:23:57.605Z,6.60
2022-12-08T03:26:31.660Z,7.60
2022-12-08T03:31:28.895Z,7.20
2022-12-08T03:33:58.580Z,7.40
2022-12-08T03:36:25.979Z,7.40
2022-12-08T03:38:53.928Z,7.60
2022-12-08T03:41:22.497Z,8.00
2022-12-08T03:43:53.275Z,7.90
2022-12-08T03:48:48.507Z,7.90
2022-12-08T03:51:30.774Z,7.80
2022-12-08T03:53:57.471Z,6.90
2022-12-08T03:56:27.482Z,7.40
2022-12-08T03:58:55.439Z,7.40
2022-12-08T04:01:23.202Z,6.70
2022-12-08T04:03:50.401Z,8.40
2022-12-08T04:06:17.653Z,8.10
2022-12-08T04:08:44.587Z,9.00
2022-12-08T04:11:12.003Z,8.10
2022-12-08T04:13:40.318Z,8.20
2022-12-08T04:16:08.326Z,9.80
2022-12-08T04:18:36.389Z,7.40
2022-12-08T04:21:03.233Z,9.10
2022-12-08T04:23:29.973Z,8.50
2022-12-08T04:25:56.719Z,7.90
2022-12-08T04:28:23.460Z,8.90
2022-12-08T04:30:50.273Z,6.80
2022-12-08T04:33:17.096Z,8.70
2022-12-08T04:35:44.056Z,7.60
2022-12-08T04:38:10.977Z,9.30
2022-12-08T04:40:37.850Z,9.10
2022-12-08T04:43:05.089Z,8.70
2022-12-08T04:45:32.185Z,7.10
2022-12-08T04:48:00.033Z,7.90
2022-12-08T04:50:26.865Z,7.90
2022-12-08T04:52:54.221Z,8.60
2022-12-08T04:55:21.593Z,8.70
2022-12-08T04:57:48.500Z,8.60
2022-12-08T05:00:15.734Z,6.90
2022-12-08T05:02:42.935Z,8.50
2022-12-08T05:05:10.194Z,7.30
2022-12-08T05:07:36.973Z,8.60
2022-12-08T05:10:04.559Z,6.80
2022-12-08T05:12:31.548Z,8.50
2022-12-08T05:14:58.300Z,8.60
2022-12-08T05:17:25.043Z,8.90
2022-12-08T05:19:51.829Z,8.40
2022-12-08T05:22:18.658Z,8.20
2022-12-08T05:24:47.674Z,8.10
2022-12-08T05:27:14.857Z,8.00
2022-12-08T05:29:42.228Z,8.80
2022-12-08T05:32:09.269Z,9.20
2022-12-08T05:34:36.035Z,8.90
2022-12-08T05:37:02.809Z,8.30
2022-12-08T05:39:29.519Z,8.50
2022-12-08T05:41:56.246Z,9.60
2022-12-08T05:44:23.085Z,9.30
2022-12-08T05:46:49.945Z,8.60
2022-12-08T05:49:16.725Z,9.10
2022-12-08T05:51:43.598Z,8.80
2022-12-08T05:54:10.987Z,9.50
2022-12-08T05:56:37.710Z,9.10
2022-12-08T05:59:08.234Z,9.50
2022-12-08T06:01:35.674Z,10.00
2022-12-08T06:04:04.032Z,7.60
2022-12-08T06:06:31.680Z,10.40
2022-12-08T06:08:58.445Z,10.00
2022-12-08T06:11:29.000Z,9.60
2022-12-08T06:13:56.874Z,10.60
2022-12-08T06:16:24.595Z,11.50
2022-12-08T06:18:51.465Z,9.00
2022-12-08T06:21:19.047Z,10.40
2022-12-08T06:23:49.850Z,10.00
2022-12-08T06:26:16.933Z,9.80
2022-12-08T06:28:44.037Z,9.20
2022-12-08T06:31:29.269Z,7.80
2022-12-08T06:33:56.089Z,9.00
2022-12-08T06:36:26.117Z,5.80
2022-12-08T06:38:53.188Z,8.70
2022-12-08T06:41:20.168Z,7.70
2022-12-08T06:43:47.202Z,8.50
2022-12-08T06:46:17.316Z,8.90
2022-12-08T06:48:44.613Z,8.40
2022-12-08T06:51:15.858Z,8.40
2022-12-08T06:53:44.082Z,8.40
2022-12-08T06:56:12.017Z,7.90
2022-12-08T06:58:39.476Z,8.80
2022-12-08T07:01:07.996Z,7.40
2022-12-08T07:03:35.697Z,9.10
2022-12-08T07:06:04.325Z,8.60
2022-12-08T07:08:32.724Z,8.40
2022-12-08T07:10:59.724Z,7.50
2022-12-08T07:13:26.564Z,7.40
2022-12-08T07:15:53.420Z,8.70
2022-12-08T07:18:20.263Z,6.60
2022-12-08T07:20:46.998Z,8.10
2022-12-08T07:23:13.693Z,8.90
2022-12-08T07:25:40.496Z,7.90
2022-12-08T07:28:10.110Z,7.40
2022-12-08T07:30:37.327Z,7.60
2022-12-08T07:33:05.948Z,6.60
2022-12-08T07:35:35.064Z,6.90
2022-12-08T07:38:02.577Z,8.60
2022-12-08T07:40:29.661Z,8.50
2022-12-08T07:42:56.456Z,6.40
2022-12-08T07:45:29.783Z,9.20
2022-12-08T07:47:58.445Z,9.00
2022-12-08T07:50:25.225Z,10.20
2022-12-08T07:52:51.947Z,10.60
2022-12-08T07:55:18.635Z,10.00
2022-12-08T07:57:45.391Z,8.60
2022-12-08T08:00:13.001Z,10.00
2022-12-08T08:02:40.408Z,9.30
2022-12-08T08:05:07.936Z,9.90
2022-12-08T08:07:35.015Z,9.40
2022-12-08T08:10:01.944Z,11.50
2022-12-08T08:12:31.667Z,17.30
2022-12-08T08:15:00.520Z,13.90
2022-12-08T08:17:27.724Z,12.10
2022-12-08T08:19:54.641Z,13.10
2022-12-08T08:22:21.367Z,11.30
2022-12-08T08:24:48.062Z,13.90
2022-12-08T08:27:14.764Z,13.90
2022-12-08T08:29:41.482Z,12.00
2022-12-08T08:32:08.349Z,12.00
2022-12-08T08:34:35.115Z,12.00
2022-12-08T08:37:01.952Z,12.40
2022-12-08T08:39:30.381Z,12.00
2022-12-08T08:41:57.518Z,11.30
2022-12-08T08:44:24.290Z,13.00
2022-12-08T08:46:51.081Z,13.20
2022-12-08T08:49:18.747Z,12.60
2022-12-08T08:51:45.713Z,13.40
2022-12-08T08:54:12.630Z,13.70
2022-12-08T08:56:39.381Z,14.20
2022-12-08T08:59:06.242Z,13.90
2022-12-08T09:01:33.993Z,15.00
2022-12-08T09:04:01.588Z,14.40
2022-12-08T09:06:28.666Z,16.10
2022-12-08T09:08:56.186Z,16.00
2022-12-08T09:11:24.522Z,15.00
2022-12-08T09:13:53.591Z,16.80
2022-12-08T09:16:21.383Z,17.50
2022-12-08T09:18:49.818Z,16.30
2022-12-08T09:21:22.724Z,11.20
2022-12-08T09:23:51.253Z,15.00
2022-12-08T09:26:18.078Z,22.20
2022-12-08T09:28:46.732Z,11.30
2022-12-08T09:31:14.731Z,15.30
2022-12-08T09:33:42.056Z,12.60
2022-12-08T09:36:09.756Z,13.70
2022-12-08T09:38:37.220Z,9.90
2022-12-08T09:41:14.487Z,9.80
2022-12-08T09:43:51.606Z,13.00
2022-12-08T09:46:20.563Z,10.50
2022-12-08T09:48:56.092Z,10.50
2022-12-08T09:51:26.123Z,8.70
2022-12-08T09:54:07.881Z,9.80
2022-12-08T09:56:37.342Z,11.30
2022-12-08T09:59:21.107Z,12.00
2022-12-08T10:01:48.039Z,10.10
2022-12-08T10:04:34.238Z,8.20
2022-12-08T10:07:13.786Z,11.30
2022-12-08T10:10:02.436Z,10.30
2022-12-08T10:13:00.092Z,10.00
2022-12-08T10:15:32.299Z,8.50
2022-12-08T10:18:03.044Z,11.20
2022-12-08T10:20:38.647Z,11.00
2022-12-08T10:23:16.476Z,10.50
2022-12-08T10:25:49.409Z,8.00
2022-12-08T10:28:16.343Z,10.10
2022-12-08T10:30:43.254Z,7.30
2022-12-08T10:33:15.833Z,9.90
2022-12-08T10:35:46.207Z,10.60
2022-12-08T10:38:31.354Z,12.00
2022-12-08T10:41:04.838Z,8.80
2022-12-08T10:43:33.315Z,10.90
2022-12-08T10:46:18.340Z,11.60
2022-12-08T10:48:51.820Z,10.00
2022-12-08T10:51:34.492Z,9.50
2022-12-08T10:54:01.598Z,10.40
2022-12-08T10:56:30.783Z,9.70
2022-12-08T10:59:13.702Z,11.50
2022-12-08T11:01:41.616Z,11.70
2022-12-08T11:04:20.324Z,12.70
2022-12-08T11:06:48.988Z,10.60
2022-12-08T11:09:15.698Z,9.70
2022-12-08T11:12:07.047Z,9.90
2022-12-08T11:14:51.375Z,13.60
2022-12-08T11:17:26.729Z,12.20
2022-12-08T11:20:04.302Z,10.00
2022-12-08T11:22:35.168Z,12.10
2022-12-08T11:25:18.784Z,10.10
2022-12-08T11:27:49.385Z,7.20
2022-12-08T11:30:20.930Z,8.10
2022-12-08T11:32:54.962Z,8.00
2022-12-08T11:35:28.977Z,8.90
2022-12-08T11:38:13.733Z,7.70
2022-12-08T11:40:48.020Z,7.40
2022-12-08T11:43:35.651Z,7.30
2022-12-08T11:46:19.286Z,6.70
2022-12-08T11:49:05.619Z,5.20
2022-12-08T11:51:37.250Z,5.70
2022-12-08T11:54:04.119Z,4.50
2022-12-08T11:56:38.764Z,5.10
2022-12-08T11:59:28.992Z,5.60
2022-12-08T12:01:58.071Z,4.50
2022-12-08T12:04:35.971Z,5.50
2022-12-08T12:07:33.960Z,5.70
2022-12-08T12:10:18.501Z,5.50
2022-12-08T12:13:15.021Z,4.70
2022-12-08T12:16:15.078Z,5.30
2022-12-08T12:18:50.448Z,5.50
2022-12-08T12:21:23.312Z,5.40
2022-12-08T12:23:53.519Z,5.90
2022-12-08T12:26:23.967Z,5.70
2022-12-08T12:28:55.749Z,5.90
2022-12-08T12:31:26.605Z,5.80
2022-12-08T12:34:03.291Z,5.50
2022-12-08T12:36:32.434Z,5.70
2022-12-08T12:39:01.192Z,4.50
2022-12-08T12:41:32.304Z,4.90
2022-12-08T12:44:14.215Z,4.70
2022-12-08T12:46:49.409Z,4.60
2022-12-08T12:49:39.953Z,4.50
2022-12-08T12:52:06.848Z,4.70
2022-12-08T12:54:33.595Z,4.30
2022-12-08T12:57:04.763Z,5.60
2022-12-08T12:59:35.093Z,5.60
2022-12-08T13:02:02.826Z,5.30
2022-12-08T13:04:33.871Z,5.00
2022-12-08T13:07:01.040Z,5.70
2022-12-08T13:09:30.953Z,5.40
2022-12-08T13:12:01.886Z,4.70
2022-12-08T13:14:30.285Z,5.90
2022-12-08T13:16:59.220Z,5.40
2022-12-08T13:19:29.469Z,5.00
2022-12-08T13:21:56.299Z,42.10
2022-12-08T13:24:23.982Z,10.00
2022-12-08T13:27:11.199Z,24.00
2022-12-08T13:29:39.173Z,96.50
2022-12-08T13:32:09.869Z,7.40
2022-12-08T13:34:50.660Z,5.50
2022-12-08T13:37:24.349Z,5.20
2022-12-08T13:39:58.379Z,4.60
2022-12-08T13:42:32.683Z,6.10
2022-12-08T13:45:27.918Z,5.50
2022-12-08T13:48:36.749Z,5.20
2022-12-08T13:57:10.772Z,4.50
2022-12-08T14:02:20.702Z,8.80
2022-12-08T14:05:17.475Z,49.50
2022-12-08T14:07:35.101Z,24.30
2022-12-08T14:10:03.789Z,19.30
2022-12-08T14:12:31.728Z,14.00
2022-12-08T14:15:14.961Z,7.20
2022-12-08T14:17:52.300Z,5.00
2022-12-08T14:20:23.923Z,8.00
2022-12-08T14:22:52.358Z,3.60
2022-12-08T14:25:20.402Z,3.30
2022-12-08T14:27:48.816Z,3.10
2022-12-08T14:30:21.256Z,6.20
2022-12-08T14:32:52.766Z,7.40
2022-12-08T14:35:26.522Z,6.70
2022-12-08T14:37:57.747Z,7.00
2022-12-08T14:40:34.822Z,4.90
2022-12-08T14:43:13.749Z,8.80
2022-12-08T14:45:40.500Z,4.50
2022-12-08T14:48:25.689Z,5.00
2022-12-08T14:51:15.458Z,5.20
2022-12-08T14:53:59.999Z,6.70
2022-12-08T14:56:50.440Z,8.30
2022-12-08T14:59:25.394Z,6.60
2022-12-08T15:02:09.012Z,4.80
2022-12-08T15:04:39.503Z,5.10
2022-12-08T15:07:13.680Z,6.20
2022-12-08T15:12:15.713Z,3.80
2022-12-08T15:17:28.944Z,8.80
2022-12-08T15:19:57.318Z,4.60
2022-12-08T15:22:25.011Z,4.70
2022-12-08T15:24:51.786Z,4.70
2022-12-08T15:27:20.353Z,6.80
2022-12-08T15:29:48.321Z,7.10
2022-12-08T15:32:19.932Z,7.80
2022-12-08T15:34:47.239Z,7.80
2022-12-08T15:37:21.649Z,11.50
2022-12-08T15:39:49.064Z,8.80
2022-12-08T15:42:15.880Z,5.70
2022-12-08T15:44:42.893Z,9.20
2022-12-08T15:47:18.160Z,6.80
2022-12-08T15:49:45.926Z,8.00
2022-12-08T15:52:15.599Z,12.20
2022-12-08T15:54:42.582Z,9.10
2022-12-08T15:57:53.086Z,10.60
2022-12-08T16:00:50.985Z,13.70
2022-12-08T16:09:13.300Z,16.90
2022-12-08T16:12:06.673Z,14.10
2022-12-08T16:17:22.131Z,15.40
2022-12-08T16:19:49.491Z,13.70
2022-12-08T16:25:24.404Z,12.80
2022-12-08T16:28:12.424Z,13.40
2022-12-08T16:30:40.887Z,12.70
2022-12-08T16:33:07.889Z,13.10
2022-12-08T16:35:34.632Z,13.50
2022-12-08T16:38:01.358Z,12.70
2022-12-08T16:41:03.888Z,13.90
2022-12-08T16:43:32.660Z,12.00
2022-12-08T16:45:59.692Z,11.90
2022-12-08T16:48:26.550Z,11.20
2022-12-08T16:50:54.195Z,11.10
2022-12-08T16:53:20.918Z,11.10
2022-12-08T16:55:49.232Z,12.00
2022-12-08T16:58:18.522Z,12.60
2022-12-08T17:00:45.399Z,11.90
2022-12-08T17:03:14.624Z,12.30
2022-12-08T17:05:41.605Z,12.30
2022-12-08T17:08:08.394Z,12.50
2022-12-08T17:10:39.415Z,14.40
2022-12-08T17:13:06.355Z,18.30
2022-12-08T17:15:33.161Z,19.50
2022-12-08T17:17:59.905Z,19.60
2022-12-08T17:20:28.882Z,20.00
2022-12-08T17:22:58.113Z,16.90
2022-12-08T17:25:26.940Z,19.30
2022-12-08T17:27:54.090Z,20.80
2022-12-08T17:30:20.912Z,22.20
2022-12-08T17:32:47.629Z,20.80
2022-12-08T17:35:15.235Z,21.30
2022-12-08T17:37:43.603Z,22.80
2022-12-08T17:40:11.445Z,28.70
2022-12-08T17:42:38.800Z,27.70
2022-12-08T17:45:07.756Z,23.10
2022-12-08T17:47:35.053Z,22.40
2022-12-08T17:50:02.140Z,23.30
2022-12-08T17:52:29.065Z,24.60
2022-12-08T17:54:55.882Z,35.60
2022-12-08T17:57:22.721Z,52.20
2022-12-08T17:59:49.420Z,57.40
2022-12-08T18:02:16.417Z,56.00
2022-12-08T18:04:43.156Z,43.50
2022-12-08T18:07:09.881Z,38.00
2022-12-08T18:09:36.641Z,37.10
2022-12-08T18:12:03.461Z,34.10
2022-12-08T18:14:30.363Z,34.10
2022-12-08T18:16:57.140Z,33.50
2022-12-08T18:19:23.971Z,32.40
2022-12-08T18:21:50.900Z,31.90
2022-12-08T18:24:22.283Z,32.00
2022-12-08T18:26:52.200Z,29.30
2022-12-08T18:29:21.322Z,30.00
2022-12-08T18:31:48.481Z,30.20
2022-12-08T18:34:15.307Z,60.60
2022-12-08T18:36:42.312Z,38.90
2022-12-08T18:39:21.070Z,27.20
2022-12-08T18:41:47.772Z,25.90
2022-12-08T18:44:14.442Z,24.90
2022-12-08T18:46:41.168Z,23.90
2022-12-08T18:49:12.315Z,25.40
2022-12-08T18:51:39.177Z,23.20
2022-12-08T18:54:05.897Z,27.50
2022-12-08T18:56:34.835Z,27.00
2022-12-08T18:59:05.576Z,24.90
2022-12-08T19:01:33.663Z,23.00
2022-12-08T19:04:27.396Z,23.60
2022-12-08T19:06:48.546Z,22.20
2022-12-08T19:09:30.905Z,23.20
2022-12-08T19:11:58.129Z,24.00
2022-12-08T19:14:28.271Z,21.30
2022-12-08T19:16:56.545Z,24.10
2022-12-08T19:19:24.114Z,23.50
2022-12-08T19:21:51.257Z,23.50
2022-12-08T19:24:18.408Z,25.70
2022-12-08T19:26:45.502Z,25.90
2022-12-08T19:29:12.516Z,24.30
2022-12-08T19:31:39.744Z,24.20
2022-12-08T19:34:08.650Z,26.10
2022-12-08T19:36:39.795Z,27.10
2022-12-08T19:39:21.775Z,27.60
2022-12-08T19:42:04.261Z,27.40
2022-12-08T19:44:54.308Z,26.00
2022-12-08T19:47:24.157Z,27.50
2022-12-08T19:49:51.945Z,27.10
2022-12-08T19:52:18.984Z,26.50
2022-12-08T19:54:46.374Z,27.50
2022-12-08T19:57:29.044Z,28.40
2022-12-08T19:59:58.305Z,26.20
2022-12-08T20:02:25.343Z,28.80
2022-12-08T20:04:52.364Z,28.10
2022-12-08T20:07:21.960Z,26.10
2022-12-08T20:09:48.790Z,24.60
2022-12-08T20:12:15.496Z,25.00
2022-12-08T20:14:45.906Z,24.90
2022-12-08T20:17:28.588Z,26.90
2022-12-08T20:19:55.310Z,29.60
2022-12-08T20:22:22.039Z,42.30
2022-12-08T20:24:57.229Z,42.40
2022-12-08T20:27:28.585Z,57.50
2022-12-08T20:30:16.494Z,73.80
2022-12-08T20:32:44.354Z,53.10
2022-12-08T20:35:11.074Z,49.20
2022-12-08T20:37:37.781Z,46.20
2022-12-08T20:40:06.749Z,51.10
2022-12-08T20:42:33.476Z,47.30
2022-12-08T20:45:00.191Z,41.20
2022-12-08T20:47:27.119Z,46.40
2022-12-08T20:49:55.426Z,48.00
2022-12-08T20:52:22.210Z,48.30
2022-12-08T20:54:48.997Z,46.20
2022-12-08T20:57:15.800Z,46.70
2022-12-08T20:59:43.356Z,46.10
2022-12-08T21:02:11.185Z,52.80
2022-12-08T21:04:38.048Z,55.60
2022-12-08T21:07:04.883Z,59.30
2022-12-08T21:09:31.700Z,52.80
2022-12-08T21:11:58.577Z,48.30
2022-12-08T21:14:25.321Z,48.40
2022-12-08T21:16:54.581Z,47.70
2022-12-08T21:19:37.985Z,46.50
2022-12-08T21:22:04.751Z,49.10
2022-12-08T21:24:34.424Z,48.90
2022-12-08T21:27:01.849Z,47.90
2022-12-08T21:29:30.250Z,47.90
2022-12-08T21:32:08.894Z,50.10
2022-12-08T21:34:37.416Z,51.60
2022-12-08T21:37:04.336Z,58.20
2022-12-08T21:39:31.190Z,74.90
2022-12-08T21:42:13.793Z,55.20
2022-12-08T21:44:40.775Z,84.70
2022-12-08T21:47:07.924Z,78.40
2022-12-08T21:49:34.762Z,67.00
2022-12-08T21:52:01.565Z,66.30
2022-12-08T21:54:28.646Z,64.10
2022-12-08T21:56:55.866Z,60.80
2022-12-08T21:59:22.688Z,55.90
2022-12-08T22:01:49.533Z,61.60
2022-12-08T22:04:18.864Z,58.60
2022-12-08T22:06:45.970Z,53.00
2022-12-08T22:09:15.218Z,50.50
2022-12-08T22:11:43.254Z,48.80
2022-12-08T22:14:14.422Z,50.00
2022-12-08T22:16:43.014Z,48.00
2022-12-08T22:19:10.147Z,48.60
2022-12-08T22:21:38.346Z,49.10
2022-12-08T22:24:05.731Z,50.30
2022-12-08T22:26:32.692Z,49.40
2022-12-08T22:29:00.473Z,43.20
2022-12-08T22:31:28.117Z,40.00
2022-12-08T22:33:55.938Z,40.60
2022-12-08T22:36:25.425Z,48.20
2022-12-08T22:38:53.403Z,36.70
2022-12-08T22:41:21.750Z,32.50
2022-12-08T22:43:49.179Z,35.40
2022-12-08T22:46:17.425Z,40.00
2022-12-08T22:48:44.608Z,35.00
2022-12-08T22:51:11.361Z,36.40
2022-12-08T22:53:38.777Z,36.90
2022-12-08T22:56:07.469Z,36.20
2022-12-08T22:58:35.378Z,39.70
2022-12-08T23:01:02.532Z,35.10
2022-12-08T23:03:29.544Z,35.10
2022-12-08T23:05:57.386Z,37.60
2022-12-08T23:08:24.885Z,37.40
2022-12-08T23:10:53.823Z,36.80
2022-12-08T23:13:21.620Z,40.90
2022-12-08T23:15:48.570Z,40.10
2022-12-08T23:18:19.140Z,42.90
2022-12-08T23:20:46.957Z,37.60
2022-12-08T23:23:14.526Z,40.60
2022-12-08T23:25:42.345Z,37.70
2022-12-08T23:28:09.926Z,32.90
2022-12-08T23:30:40.139Z,31.00
2022-12-08T23:33:07.016Z,30.70
2022-12-08T23:35:34.068Z,34.20
2022-12-08T23:38:01.204Z,34.50
2022-12-08T23:40:28.281Z,32.30
2022-12-08T23:42:55.124Z,30.10
2022-12-08T23:45:22.082Z,33.00
2022-12-08T23:47:49.020Z,33.20
2022-12-08T23:50:15.937Z,28.10
2022-12-08T23:52:42.727Z,29.20
2022-12-08T23:55:11.302Z,30.30
2022-12-08T23:57:39.183Z,29.10
